»·PEaware :: N1BB KSLC-KFBR

N1BB :: KSLC-KFBR

FLIGHT INFORMATION

Flight Status: Arrived
Operator: Privately registered:
United States
More flights under this callsign
Pilot: Anonymous 24489 (24489)
Aircraft: MCDONNELL-DOUGLAS DC-6/B LIFTMASTER
(DC6)
More flights by this aircraft type
Origin: KSLC Salt Lake City Intl
United States
Destination: KFBR Ft Bridger
United States
More flights between these airports :: More routes between these airports
Route: TCH V32 FBR
File this flight plan on PilotEdge
Remarks: RMK / SIMBRIEF
Altitude:
(Current/Filed)
11,000ft
Speed:
(Current/Filed)
257kts
Departed: 14-Sep-21 08:12 PM
Arrived: 14-Sep-21 08:50 PM
Distance/Time
Traveled:
80nm/0:38
Distance/Time
To Go:
Arrived

Flight Plot

Page will automatically refresh every two minutes.

Flight plan parsing failed; only flown route is shown


Map Options




Map Legend


Flown Route
Filed Route
Departure Airport
Arrival Airport
Navaid (VOR, NDB)
Fix

Horizontal Profiles

Position Reports

Time Latitude Longitude Heading Altitude Ground
Speed
14-Sep-21 19:46 40.773025 -111.956877 265 4233ft 0kts
14-Sep-21 19:46 40.773025 -111.956877 265 4233ft 0kts
14-Sep-21 19:47 40.773025 -111.956877 265 4233ft 0kts
14-Sep-21 19:48 40.773025 -111.956877 265 4233ft 0kts
14-Sep-21 19:49 40.773025 -111.956877 265 4233ft 0kts
14-Sep-21 19:50 40.773025 -111.956877 265 4233ft 0kts
14-Sep-21 19:51 40.773025 -111.956877 265 4233ft 0kts
14-Sep-21 19:52 40.773025 -111.956877 265 4233ft 0kts
14-Sep-21 19:53 40.773025 -111.956877 265 4233ft 0kts
14-Sep-21 19:54 40.773025 -111.956877 265 4234ft 0kts
14-Sep-21 19:55 40.773025 -111.956877 265 4234ft 0kts
14-Sep-21 19:56 40.773025 -111.956877 265 4234ft 0kts
14-Sep-21 19:57 40.773025 -111.956877 265 4234ft 0kts
14-Sep-21 19:58 40.773025 -111.956877 265 4234ft 0kts
14-Sep-21 19:59 40.773025 -111.956877 265 4234ft 0kts
14-Sep-21 20:00 40.773025 -111.956877 265 4234ft 0kts
14-Sep-21 20:01 40.774007 -111.956791 319 4234ft 17kts
14-Sep-21 20:02 40.773814 -111.959575 264 4239ft 0kts
14-Sep-21 20:03 40.773814 -111.959575 264 4239ft 0kts
14-Sep-21 20:04 40.773814 -111.959576 264 4239ft 0kts
14-Sep-21 20:05 40.773814 -111.959576 264 4239ft 0kts
14-Sep-21 20:06 40.772823 -111.960664 186 4238ft 0kts
14-Sep-21 20:07 40.772726 -111.961105 268 4237ft 11kts
14-Sep-21 20:08 40.773441 -111.963028 330 4237ft 17kts
14-Sep-21 20:09 40.777160 -111.963783 93 4236ft 15kts
14-Sep-21 20:10 40.777151 -111.962417 69 4235ft 15kts
14-Sep-21 20:11 40.785287 -111.962163 0 4233ft 98kts
14-Sep-21 20:12 40.815687 -111.974483 339 4967ft 122kts
14-Sep-21 20:13 40.850166 -111.981917 349 5835ft 134kts
14-Sep-21 20:14 40.889445 -111.992037 351 6628ft 151kts
14-Sep-21 20:15 40.937405 -112.001557 354 6902ft 196kts
14-Sep-21 20:16 40.986504 -112.025798 300 7385ft 194kts
14-Sep-21 20:17 40.990986 -112.090761 239 8408ft 181kts
14-Sep-21 20:18 40.946487 -112.087821 120 9225ft 194kts
14-Sep-21 20:19 40.924888 -112.025203 92 10142ft 188kts
14-Sep-21 20:20 40.928583 -111.956693 87 11056ft 186kts
14-Sep-21 20:21 40.933007 -111.888526 87 11949ft 186kts
14-Sep-21 20:22 40.937020 -111.820108 87 12775ft 186kts
14-Sep-21 20:23 40.945145 -111.753002 68 13097ft 194kts
14-Sep-21 20:24 40.968963 -111.686903 64 13109ft 197kts
14-Sep-21 20:25 40.995694 -111.620147 65 13101ft 214kts
14-Sep-21 20:26 41.024446 -111.548454 64 13100ft 225kts
14-Sep-21 20:27 41.054417 -111.473581 62 13103ft 234kts
14-Sep-21 20:28 41.084013 -111.394799 77 13122ft 242kts
14-Sep-21 20:29 41.103262 -111.308392 67 13176ft 245kts
14-Sep-21 20:30 41.131000 -111.225699 64 13250ft 246kts
14-Sep-21 20:31 41.159833 -111.142962 62 13178ft 250kts
14-Sep-21 20:32 41.183431 -111.056554 91 13101ft 249kts
14-Sep-21 20:33 41.197435 -110.970688 70 13201ft 229kts
14-Sep-21 20:34 41.220702 -110.894974 65 13235ft 208kts
14-Sep-21 20:35 41.243964 -110.825035 65 13275ft 207kts
14-Sep-21 20:36 41.267189 -110.755928 65 13278ft 202kts
14-Sep-21 20:37 41.290340 -110.686923 65 13271ft 206kts
14-Sep-21 20:38 41.306265 -110.606804 90 12135ft 249kts
14-Sep-21 20:39 41.306737 -110.527505 66 10938ft 206kts
14-Sep-21 20:40 41.331957 -110.462810 62 9159ft 197kts
14-Sep-21 20:41 41.355409 -110.399830 49 8640ft 182kts
14-Sep-21 20:42 41.397034 -110.389171 1 8311ft 180kts
14-Sep-21 20:43 41.422122 -110.349017 305 7940ft 121kts
14-Sep-21 20:44 41.402606 -110.384015 239 7188ft 99kts
14-Sep-21 20:45 41.387528 -110.414836 228 7143ft 111kts
14-Sep-21 20:46 41.369612 -110.417081 68 7115ft 127kts
14-Sep-21 20:47 41.391864 -110.377767 37 7516ft 156kts
14-Sep-21 20:48 41.399597 -110.391978 237 7108ft 81kts
14-Sep-21 20:49 41.393048 -110.404831 250 7024ft 26kts
14-Sep-21 20:50 41.396435 -110.401084 79 7019ft 24kts
14-Sep-21 20:51 41.397379 -110.398772 174 7017ft 0kts
14-Sep-21 20:52 41.397379 -110.398772 174 7017ft 0kts
14-Sep-21 20:53 41.397379 -110.398772 174 7017ft 0kts
14-Sep-21 20:54 41.397379 -110.398772 174 7017ft 0kts
14-Sep-21 20:55 41.397379 -110.398772 174 7017ft 0kts
14-Sep-21 20:56 41.397379 -110.398772 174 7017ft 0kts
14-Sep-21 20:57 41.397379 -110.398772 174 7017ft 0kts

Navigation Log

Ident Type
Flight plan parsing failed, navigation log unavailable